createdAt,value
2023-04-07T00:01:15.661Z,5.13
2023-04-07T00:03:43.969Z,5.20
2023-04-07T00:06:11.913Z,5.07
2023-04-07T00:08:39.704Z,4.20
2023-04-07T00:11:08.833Z,4.80
2023-04-07T00:13:36.571Z,4.27
2023-04-07T00:16:04.365Z,4.90
2023-04-07T00:18:33.520Z,4.30
2023-04-07T00:21:01.248Z,4.33
2023-04-07T00:23:28.974Z,4.97
2023-04-07T00:25:56.766Z,4.53
2023-04-07T00:28:24.662Z,4.90
2023-04-07T00:30:52.390Z,5.07
2023-04-07T00:33:20.427Z,4.50
2023-04-07T00:35:49.654Z,4.70
2023-04-07T00:38:17.409Z,4.97
2023-04-07T00:40:45.139Z,5.20
2023-04-07T00:43:13.131Z,4.63
2023-04-07T00:45:40.882Z,4.37
2023-04-07T00:48:09.064Z,4.47
2023-04-07T00:50:36.923Z,4.37
2023-04-07T00:53:06.646Z,4.63
2023-04-07T00:55:34.563Z,4.57
2023-04-07T00:58:02.304Z,4.67
2023-04-07T01:00:30.487Z,4.60
2023-04-07T01:03:02.637Z,4.50
2023-04-07T01:05:40.471Z,4.60
2023-04-07T01:08:16.007Z,4.30
2023-04-07T01:10:51.151Z,4.60
2023-04-07T01:13:26.671Z,4.03
2023-04-07T01:15:57.488Z,4.17
2023-04-07T01:18:28.791Z,4.50
2023-04-07T01:21:01.922Z,4.40
2023-04-07T01:23:42.476Z,4.60
2023-04-07T01:26:20.829Z,4.07
2023-04-07T01:31:52.365Z,4.20
2023-04-07T01:34:20.843Z,4.63
2023-04-07T01:36:50.931Z,3.80
2023-04-07T01:39:19.691Z,4.37
2023-04-07T01:41:48.268Z,4.20
2023-04-07T01:44:16.436Z,4.00
2023-04-07T01:46:44.279Z,4.63
2023-04-07T01:49:14.638Z,4.27
2023-04-07T01:51:43.452Z,4.37
2023-04-07T01:54:11.597Z,4.57
2023-04-07T01:56:39.317Z,4.10
2023-04-07T01:59:07.145Z,4.67
2023-04-07T02:01:35.492Z,4.57
2023-04-07T02:04:12.491Z,4.07
2023-04-07T02:06:49.113Z,4.27
2023-04-07T02:09:17.956Z,4.10
2023-04-07T02:11:46.356Z,4.00
2023-04-07T02:14:15.597Z,4.03
2023-04-07T02:16:45.791Z,4.00
2023-04-07T02:19:15.339Z,4.03
2023-04-07T02:21:45.650Z,3.60
2023-04-07T02:24:13.762Z,4.20
2023-04-07T02:26:41.841Z,4.10
2023-04-07T02:29:09.617Z,3.90
2023-04-07T02:31:37.388Z,4.07
2023-04-07T02:34:05.342Z,3.57
2023-04-07T02:36:33.089Z,3.90
2023-04-07T02:39:02.217Z,3.70
2023-04-07T02:41:29.967Z,3.93
2023-04-07T02:43:57.856Z,3.57
2023-04-07T02:46:25.924Z,3.93
2023-04-07T02:48:53.770Z,4.17
2023-04-07T02:51:21.584Z,3.70
2023-04-07T02:53:49.337Z,3.97
2023-04-07T02:56:18.484Z,4.30
2023-04-07T02:58:46.697Z,3.73
2023-04-07T03:01:14.519Z,3.33
2023-04-07T03:03:44.901Z,4.23
2023-04-07T03:06:12.774Z,3.87
2023-04-07T03:08:40.822Z,4.00
2023-04-07T03:11:08.570Z,3.97
2023-04-07T03:13:37.682Z,4.03
2023-04-07T03:16:05.566Z,3.53
2023-04-07T03:18:33.286Z,3.57
2023-04-07T03:21:01.008Z,3.30
2023-04-07T03:23:29.434Z,3.40
2023-04-07T03:25:58.263Z,3.30
2023-04-07T03:28:26.000Z,3.57
2023-04-07T03:30:55.115Z,3.50
2023-04-07T03:33:22.909Z,3.70
2023-04-07T03:35:50.639Z,3.33
2023-04-07T03:38:18.447Z,3.30
2023-04-07T03:40:46.397Z,3.20
2023-04-07T03:43:15.065Z,3.17
2023-04-07T03:45:43.032Z,3.70
2023-04-07T03:48:12.329Z,2.67
2023-04-07T03:50:40.799Z,2.83
2023-04-07T03:53:09.294Z,2.93
2023-04-07T03:55:37.995Z,3.03
2023-04-07T03:58:05.811Z,2.53
2023-04-07T04:00:33.928Z,2.87
2023-04-07T04:03:01.947Z,2.47
2023-04-07T04:05:31.171Z,2.67
2023-04-07T04:07:58.894Z,2.60
2023-04-07T04:10:27.278Z,2.50
2023-04-07T04:12:55.021Z,2.60
2023-04-07T04:15:22.880Z,2.33
2023-04-07T04:17:50.721Z,2.77
2023-04-07T04:20:18.619Z,2.57
2023-04-07T04:22:47.713Z,2.60
2023-04-07T04:25:15.841Z,2.57
2023-04-07T04:27:43.587Z,2.73
2023-04-07T04:30:11.802Z,3.07
2023-04-07T04:32:39.655Z,3.20
2023-04-07T04:35:07.998Z,3.00
2023-04-07T04:37:35.804Z,2.63
2023-04-07T04:40:08.437Z,2.63
2023-04-07T04:42:36.949Z,2.43
2023-04-07T04:45:05.289Z,2.57
2023-04-07T04:47:33.052Z,2.47
2023-04-07T04:50:00.963Z,2.60
2023-04-07T04:52:28.815Z,3.07
2023-04-07T04:54:56.724Z,3.23
2023-04-07T04:57:25.905Z,2.70
2023-04-07T04:59:53.659Z,3.10
2023-04-07T05:02:22.057Z,3.33
2023-04-07T05:04:50.048Z,3.10
2023-04-07T05:07:17.879Z,3.03
2023-04-07T05:09:45.651Z,3.27
2023-04-07T05:12:13.391Z,2.90
2023-04-07T05:14:42.560Z,3.27
2023-04-07T05:17:10.621Z,3.07
2023-04-07T05:19:38.367Z,3.53
2023-04-07T05:22:06.077Z,2.80
2023-04-07T05:24:33.832Z,25.33
2023-04-07T05:27:01.960Z,47.63
2023-04-07T05:29:29.868Z,2.93
2023-04-07T05:31:58.979Z,3.30
2023-04-07T05:34:26.949Z,3.60
2023-04-07T05:36:54.753Z,3.00
2023-04-07T05:39:22.480Z,2.80
2023-04-07T05:41:50.276Z,3.70
2023-04-07T05:44:17.995Z,2.80
2023-04-07T05:46:45.791Z,3.07
2023-04-07T05:49:20.027Z,3.40
2023-04-07T05:51:49.241Z,3.33
2023-04-07T05:54:17.356Z,2.80
2023-04-07T05:56:45.499Z,2.77
2023-04-07T05:59:13.240Z,2.87
2023-04-07T06:01:41.185Z,2.37
2023-04-07T06:04:08.975Z,3.30
2023-04-07T06:06:38.191Z,3.13
2023-04-07T06:09:07.007Z,3.20
2023-04-07T06:11:36.018Z,3.43
2023-04-07T06:14:03.756Z,3.00
2023-04-07T06:16:31.570Z,3.13
2023-04-07T06:18:59.361Z,3.17
2023-04-07T06:21:27.420Z,3.07
2023-04-07T06:23:56.509Z,3.50
2023-04-07T06:26:24.618Z,3.43
2023-04-07T06:28:53.095Z,3.40
2023-04-07T06:31:21.054Z,3.10
2023-04-07T06:33:49.092Z,3.17
2023-04-07T06:36:17.401Z,3.20
2023-04-07T06:38:45.602Z,2.73
2023-04-07T06:41:17.116Z,3.10
2023-04-07T06:43:45.437Z,2.73
2023-04-07T06:46:13.221Z,2.80
2023-04-07T06:48:41.024Z,2.87
2023-04-07T06:51:08.732Z,3.03
2023-04-07T06:53:36.475Z,3.00
2023-04-07T06:56:05.450Z,3.30
2023-04-07T06:58:35.295Z,3.00
2023-04-07T07:01:03.890Z,2.80
2023-04-07T07:03:31.889Z,2.70
2023-04-07T07:06:00.085Z,3.20
2023-04-07T07:08:29.222Z,3.00
2023-04-07T07:10:56.952Z,2.50
2023-04-07T07:13:26.125Z,2.40
2023-04-07T07:15:55.435Z,3.23
2023-04-07T07:18:23.196Z,3.17
2023-04-07T07:20:51.188Z,3.87
2023-04-07T07:23:18.987Z,2.93
2023-04-07T07:25:46.750Z,2.70
2023-04-07T07:28:14.497Z,2.10
2023-04-07T07:30:43.375Z,2.67
2023-04-07T07:33:13.032Z,3.00
2023-04-07T07:35:41.452Z,2.80
2023-04-07T07:38:09.343Z,2.73
2023-04-07T07:40:37.089Z,2.37
2023-04-07T07:43:04.810Z,2.20
2023-04-07T07:45:32.615Z,2.37
2023-04-07T07:48:00.829Z,2.50
2023-04-07T07:50:30.175Z,3.90
2023-04-07T07:52:57.921Z,2.50
2023-04-07T07:55:25.780Z,2.43
2023-04-07T07:57:53.538Z,3.10
2023-04-07T08:00:21.564Z,2.80
2023-04-07T08:02:49.401Z,2.67
2023-04-07T08:05:17.169Z,2.93
2023-04-07T08:07:46.898Z,2.80
2023-04-07T08:10:14.698Z,2.97
2023-04-07T08:12:42.568Z,2.80
2023-04-07T08:15:10.775Z,3.43
2023-04-07T08:17:39.240Z,2.53
2023-04-07T08:20:08.438Z,2.67
2023-04-07T08:22:36.150Z,3.40
2023-04-07T08:25:05.775Z,3.63
2023-04-07T08:27:33.515Z,3.07
2023-04-07T08:30:02.206Z,3.00
2023-04-07T08:32:36.611Z,3.03
2023-04-07T08:35:04.623Z,2.50
2023-04-07T08:37:32.437Z,2.57
2023-04-07T08:40:00.196Z,2.90
2023-04-07T08:42:30.993Z,2.60
2023-04-07T08:45:03.424Z,2.37
2023-04-07T08:47:33.468Z,2.80
2023-04-07T08:50:03.781Z,3.00
2023-04-07T08:52:36.317Z,2.80
2023-04-07T08:55:06.838Z,2.80
2023-04-07T08:57:36.137Z,2.87
2023-04-07T09:00:05.822Z,2.73
2023-04-07T09:02:35.099Z,2.70
2023-04-07T09:05:05.522Z,2.90
2023-04-07T09:07:34.600Z,3.00
2023-04-07T09:10:02.730Z,2.90
2023-04-07T09:12:31.273Z,3.57
2023-04-07T09:15:00.779Z,3.00
2023-04-07T09:17:29.557Z,3.00
2023-04-07T09:19:58.033Z,2.90
2023-04-07T09:22:39.444Z,3.00
2023-04-07T09:25:18.079Z,3.00
2023-04-07T09:27:56.291Z,2.83
2023-04-07T09:30:26.375Z,2.70
2023-04-07T09:32:54.408Z,3.27
2023-04-07T09:35:23.839Z,2.93
2023-04-07T09:38:05.606Z,3.10
2023-04-07T09:40:34.285Z,3.20
2023-04-07T09:43:02.950Z,3.10
2023-04-07T09:45:40.299Z,3.10
2023-04-07T09:48:08.748Z,2.60
2023-04-07T09:50:38.072Z,3.17
2023-04-07T09:53:05.908Z,2.80
2023-04-07T09:55:34.978Z,3.00
2023-04-07T09:58:06.373Z,2.93
2023-04-07T10:00:36.949Z,3.47
2023-04-07T10:03:05.317Z,3.70
2023-04-07T10:05:35.421Z,3.13
2023-04-07T10:08:03.465Z,3.10
2023-04-07T10:10:32.724Z,3.20
2023-04-07T10:13:00.638Z,3.10
2023-04-07T10:15:28.448Z,3.03
2023-04-07T10:17:58.391Z,3.00
2023-04-07T10:20:26.881Z,3.33
2023-04-07T10:23:01.370Z,2.90
2023-04-07T10:25:29.692Z,3.17
2023-04-07T10:28:01.263Z,3.03
2023-04-07T10:30:31.592Z,3.00
2023-04-07T10:33:01.231Z,3.10
2023-04-07T10:35:29.941Z,2.87
2023-04-07T10:38:15.236Z,3.53
2023-04-07T10:40:44.023Z,3.07
2023-04-07T10:43:12.358Z,3.07
2023-04-07T10:46:00.656Z,3.10
2023-04-07T10:48:33.016Z,3.07
2023-04-07T10:51:15.432Z,2.83
2023-04-07T10:54:20.720Z,26.83
2023-04-07T10:57:12.006Z,3.53
2023-04-07T11:00:04.406Z,3.03
2023-04-07T11:02:36.003Z,3.53
2023-04-07T11:05:05.902Z,3.50
2023-04-07T11:07:48.845Z,3.30
2023-04-07T11:10:18.944Z,3.43
2023-04-07T11:13:02.695Z,3.80
2023-04-07T11:15:30.448Z,3.33
2023-04-07T11:18:16.254Z,3.30
2023-04-07T11:20:50.256Z,3.60
2023-04-07T11:23:19.530Z,3.60
2023-04-07T11:25:49.075Z,3.80
2023-04-07T11:28:16.865Z,3.43
2023-04-07T11:30:51.576Z,3.40
2023-04-07T11:33:21.104Z,3.23
2023-04-07T11:35:52.131Z,3.13
2023-04-07T11:38:21.042Z,3.87
2023-04-07T11:40:49.264Z,3.07
2023-04-07T11:43:19.024Z,3.20
2023-04-07T11:45:46.861Z,3.50
2023-04-07T11:48:31.395Z,3.27
2023-04-07T11:51:01.016Z,3.40
2023-04-07T11:53:30.548Z,3.20
2023-04-07T11:56:10.115Z,3.20
2023-04-07T11:58:38.720Z,3.20
2023-04-07T12:01:09.025Z,4.03
2023-04-07T12:03:38.632Z,3.70
2023-04-07T12:06:07.831Z,3.17
2023-04-07T12:08:39.965Z,3.73
2023-04-07T12:11:07.990Z,3.90
2023-04-07T12:13:35.967Z,3.90
2023-04-07T12:16:03.901Z,3.50
2023-04-07T12:18:32.028Z,4.20
2023-04-07T12:20:59.823Z,3.60
2023-04-07T12:23:28.945Z,4.23
2023-04-07T12:25:56.715Z,4.03
2023-04-07T12:28:24.500Z,3.83
2023-04-07T12:30:52.234Z,3.87
2023-04-07T12:33:20.005Z,3.47
2023-04-07T12:35:47.742Z,3.93
2023-04-07T12:38:15.656Z,4.13
2023-04-07T12:40:44.882Z,4.10
2023-04-07T12:43:12.899Z,4.37
2023-04-07T12:45:40.733Z,4.73
2023-04-07T12:48:08.644Z,3.87
2023-04-07T12:50:36.907Z,3.90
2023-04-07T12:53:05.459Z,4.00
2023-04-07T12:55:35.633Z,4.30
2023-04-07T12:58:04.791Z,6.33
2023-04-07T13:00:32.551Z,4.10
2023-04-07T13:03:00.406Z,4.40
2023-04-07T13:05:29.567Z,5.10
2023-04-07T13:07:57.275Z,4.17
2023-04-07T13:10:25.008Z,5.13
2023-04-07T13:12:53.298Z,5.00
2023-04-07T13:15:22.612Z,4.57
2023-04-07T13:17:50.611Z,4.87
2023-04-07T13:20:20.677Z,4.73
2023-04-07T13:22:59.267Z,4.53
2023-04-07T13:25:31.541Z,4.77
2023-04-07T13:27:59.756Z,5.37
2023-04-07T13:30:28.916Z,5.70
2023-04-07T13:32:57.081Z,5.30
2023-04-07T13:35:25.214Z,6.00
2023-04-07T13:37:52.935Z,6.10
2023-04-07T13:40:20.898Z,5.43
2023-04-07T13:42:48.617Z,6.40
2023-04-07T13:45:16.470Z,5.40
2023-04-07T13:47:46.127Z,5.50
2023-04-07T13:50:13.911Z,5.67
2023-04-07T13:52:41.769Z,5.20
2023-04-07T13:55:10.513Z,5.70
2023-04-07T13:57:38.287Z,5.53
2023-04-07T14:00:07.528Z,5.20
2023-04-07T14:02:35.640Z,5.47
2023-04-07T14:05:05.174Z,5.50
2023-04-07T14:07:32.907Z,5.67
2023-04-07T14:10:00.643Z,5.53
2023-04-07T14:12:28.437Z,5.47
2023-04-07T14:14:56.601Z,4.87
2023-04-07T14:17:24.710Z,5.87
2023-04-07T14:19:52.479Z,5.37
2023-04-07T14:22:21.558Z,5.30
2023-04-07T14:24:49.302Z,5.27
2023-04-07T14:27:20.995Z,5.23
2023-04-07T14:29:49.034Z,5.70
2023-04-07T14:32:16.964Z,5.50
2023-04-07T14:34:44.732Z,6.17
2023-04-07T14:37:14.111Z,6.53
2023-04-07T14:39:55.288Z,5.60
2023-04-07T14:42:30.697Z,6.10
2023-04-07T14:44:58.742Z,5.50
2023-04-07T14:47:27.449Z,5.90
2023-04-07T14:49:55.664Z,5.93
2023-04-07T14:52:23.450Z,5.70
2023-04-07T14:54:52.607Z,5.70
2023-04-07T14:57:20.313Z,5.13
2023-04-07T14:59:48.718Z,5.27
2023-04-07T15:02:17.030Z,5.43
2023-04-07T15:04:45.050Z,5.47
2023-04-07T15:07:12.812Z,4.50
2023-04-07T15:09:40.568Z,5.80
2023-04-07T15:12:09.660Z,5.30
2023-04-07T15:14:37.391Z,5.33
2023-04-07T15:17:05.156Z,5.17
2023-04-07T15:19:32.926Z,5.23
2023-04-07T15:22:00.663Z,5.17
2023-04-07T15:24:28.412Z,5.73
2023-04-07T15:26:56.115Z,5.33
2023-04-07T15:29:25.457Z,5.63
2023-04-07T15:31:53.316Z,5.40
2023-04-07T15:34:21.150Z,4.90
2023-04-07T15:36:48.870Z,5.30
2023-04-07T15:39:16.932Z,4.67
2023-04-07T15:41:44.664Z,4.33
2023-04-07T15:44:18.655Z,4.53
2023-04-07T15:46:47.913Z,4.47
2023-04-07T15:49:20.062Z,4.90
2023-04-07T15:51:47.865Z,6.13
2023-04-07T15:54:15.860Z,4.90
2023-04-07T15:56:43.590Z,4.70
2023-04-07T15:59:11.350Z,3.97
2023-04-07T16:01:39.425Z,4.33
2023-04-07T16:04:08.933Z,4.27
2023-04-07T16:06:36.812Z,4.03
2023-04-07T16:09:05.056Z,4.23
2023-04-07T16:11:32.859Z,3.83
2023-04-07T16:14:00.660Z,4.07
2023-04-07T16:16:28.628Z,4.63
2023-04-07T16:18:56.401Z,4.00
2023-04-07T16:21:26.557Z,4.43
2023-04-07T16:23:54.298Z,4.67
2023-04-07T16:26:22.133Z,4.80
2023-04-07T16:28:50.485Z,5.50
2023-04-07T16:31:18.290Z,5.77
2023-04-07T16:33:46.191Z,6.77
2023-04-07T16:36:14.046Z,4.97
2023-04-07T16:38:43.181Z,4.50
2023-04-07T16:41:10.980Z,5.20
2023-04-07T16:43:38.881Z,5.03
2023-04-07T16:46:06.936Z,5.93
2023-04-07T16:48:34.756Z,5.57
2023-04-07T16:51:02.522Z,5.97
2023-04-07T16:53:30.237Z,5.63
2023-04-07T16:55:59.339Z,6.80
2023-04-07T16:58:27.094Z,6.13
2023-04-07T17:00:54.838Z,6.63
2023-04-07T17:03:22.638Z,6.73
2023-04-07T17:05:51.048Z,6.30
2023-04-07T17:08:18.798Z,6.17
2023-04-07T17:10:46.574Z,6.87
2023-04-07T17:13:15.879Z,6.80
2023-04-07T17:15:43.670Z,6.90
2023-04-07T17:18:11.450Z,7.20
2023-04-07T17:20:39.321Z,6.23
2023-04-07T17:23:07.053Z,6.67
2023-04-07T17:25:34.776Z,6.13
2023-04-07T17:28:02.522Z,6.53
2023-04-07T17:30:31.683Z,5.97
2023-04-07T17:32:59.430Z,7.23
2023-04-07T17:35:27.195Z,6.87
2023-04-07T17:37:56.504Z,7.17
2023-04-07T17:40:24.562Z,6.90
2023-04-07T17:42:52.299Z,7.23
2023-04-07T17:45:20.073Z,6.20
2023-04-07T17:47:49.320Z,7.70
2023-04-07T17:50:17.260Z,7.10
2023-04-07T17:52:45.291Z,7.27
2023-04-07T17:55:13.242Z,7.13
2023-04-07T17:57:42.272Z,7.27
2023-04-07T18:00:10.586Z,7.60
2023-04-07T18:02:40.318Z,7.10
2023-04-07T18:05:10.653Z,9.63
2023-04-07T18:07:38.813Z,6.30
2023-04-07T18:10:07.620Z,7.30
2023-04-07T18:12:35.432Z,6.27
2023-04-07T18:15:03.209Z,7.60
2023-04-07T18:17:31.185Z,7.67
2023-04-07T18:19:58.965Z,7.60
2023-04-07T18:22:28.201Z,7.00
2023-04-07T18:24:55.914Z,7.43
2023-04-07T18:27:25.288Z,7.33
2023-04-07T18:29:53.026Z,7.37
2023-04-07T18:32:20.784Z,7.20
2023-04-07T18:34:48.837Z,6.80
2023-04-07T18:37:16.599Z,7.30
2023-04-07T18:39:45.741Z,7.30
2023-04-07T18:42:13.528Z,6.53
2023-04-07T18:44:41.285Z,6.57
2023-04-07T18:47:09.010Z,7.57
2023-04-07T18:49:37.230Z,7.13
2023-04-07T18:52:04.975Z,7.17
2023-04-07T18:54:32.878Z,7.20
2023-04-07T18:57:02.532Z,8.03
2023-04-07T18:59:30.969Z,7.57
2023-04-07T19:01:58.804Z,8.13
2023-04-07T19:04:26.612Z,7.90
2023-04-07T19:06:54.896Z,8.60
2023-04-07T19:09:22.630Z,8.97
2023-04-07T19:11:51.354Z,8.87
2023-04-07T19:14:20.466Z,8.90
2023-04-07T19:16:48.355Z,7.97
2023-04-07T19:19:17.296Z,9.47
2023-04-07T19:21:45.238Z,8.63
2023-04-07T19:24:12.956Z,8.90
2023-04-07T19:26:40.966Z,9.87
2023-04-07T19:29:10.639Z,8.47
2023-04-07T19:31:40.073Z,8.47
2023-04-07T19:34:07.808Z,8.53
2023-04-07T19:36:35.733Z,9.73
2023-04-07T19:39:05.293Z,8.23
2023-04-07T19:41:33.069Z,37.67
2023-04-07T19:44:01.151Z,11.37
2023-04-07T19:46:29.197Z,9.13
2023-04-07T19:48:58.332Z,8.70
2023-04-07T19:51:26.061Z,8.90
2023-04-07T19:53:53.811Z,9.27
2023-04-07T19:56:21.573Z,10.23
2023-04-07T19:58:49.566Z,9.27
2023-04-07T20:01:17.989Z,9.60
2023-04-07T20:03:46.843Z,10.47
2023-04-07T20:06:17.174Z,9.77
2023-04-07T20:08:44.927Z,9.53
2023-04-07T20:11:13.416Z,10.77
2023-04-07T20:13:42.354Z,9.37
2023-04-07T20:16:10.460Z,10.50
2023-04-07T20:18:38.305Z,10.07
2023-04-07T20:21:06.943Z,10.20
2023-04-07T20:23:36.592Z,10.67
2023-04-07T20:26:04.343Z,10.20
2023-04-07T20:28:32.283Z,10.90
2023-04-07T20:31:00.415Z,11.20
2023-04-07T20:33:28.220Z,10.83
2023-04-07T20:35:56.290Z,11.07
2023-04-07T20:38:25.003Z,10.27
2023-04-07T20:40:54.310Z,9.90
2023-04-07T20:43:23.731Z,10.67
2023-04-07T20:45:52.167Z,11.00
2023-04-07T20:48:23.779Z,10.27
2023-04-07T20:50:52.061Z,10.60
2023-04-07T20:53:19.855Z,10.17
2023-04-07T20:55:48.389Z,9.90
2023-04-07T20:58:18.558Z,9.80
2023-04-07T21:00:46.645Z,10.17
2023-04-07T21:03:14.926Z,10.30
2023-04-07T21:05:43.497Z,9.57
2023-04-07T21:08:13.255Z,10.03
2023-04-07T21:10:42.252Z,9.97
2023-04-07T21:13:09.978Z,9.70
2023-04-07T21:15:39.095Z,9.13
2023-04-07T21:18:06.973Z,10.20
2023-04-07T21:20:36.921Z,10.03
2023-04-07T21:23:05.494Z,10.40
2023-04-07T21:25:33.253Z,10.10
2023-04-07T21:28:01.071Z,9.40
2023-04-07T21:30:28.836Z,9.60
2023-04-07T21:32:59.066Z,9.90
2023-04-07T21:35:28.325Z,9.27
2023-04-07T21:37:56.807Z,9.33
2023-04-07T21:40:24.570Z,9.70
2023-04-07T21:42:52.910Z,9.10
2023-04-07T21:45:20.676Z,11.00
2023-04-07T21:47:48.428Z,8.70
2023-04-07T21:50:17.606Z,8.50
2023-04-07T21:52:45.357Z,9.13
2023-04-07T21:55:13.297Z,8.57
2023-04-07T21:57:41.112Z,8.77
2023-04-07T22:00:10.674Z,8.67
2023-04-07T22:02:39.050Z,8.80
2023-04-07T22:05:07.484Z,9.57
2023-04-07T22:07:36.574Z,9.77
2023-04-07T22:10:06.293Z,9.47
2023-04-07T22:12:34.024Z,9.53
2023-04-07T22:15:01.830Z,9.03
2023-04-07T22:17:29.666Z,9.77
2023-04-07T22:19:57.447Z,10.67
2023-04-07T22:22:25.303Z,9.23
2023-04-07T22:24:54.401Z,10.50
2023-04-07T22:27:22.122Z,10.50
2023-04-07T22:29:49.879Z,10.97
2023-04-07T22:32:17.663Z,10.53
2023-04-07T22:34:45.712Z,10.80
2023-04-07T22:37:13.616Z,10.70
2023-04-07T22:39:41.330Z,11.40
2023-04-07T22:42:10.435Z,10.37
2023-04-07T22:44:38.209Z,11.83
2023-04-07T22:47:06.035Z,10.67
2023-04-07T22:49:33.923Z,10.97
2023-04-07T22:52:01.637Z,11.30
2023-04-07T22:54:29.464Z,10.83
2023-04-07T22:56:57.431Z,11.53
2023-04-07T22:59:26.545Z,11.33
2023-04-07T23:01:56.306Z,11.73
2023-04-07T23:04:25.565Z,12.07
2023-04-07T23:06:53.273Z,12.40
2023-04-07T23:09:21.005Z,12.40
2023-04-07T23:11:48.778Z,11.77
2023-04-07T23:14:16.544Z,11.73
2023-04-07T23:16:45.713Z,11.33
2023-04-07T23:19:15.711Z,12.67
2023-04-07T23:21:44.157Z,13.50
2023-04-07T23:24:12.159Z,13.90
2023-04-07T23:26:39.961Z,13.53
2023-04-07T23:29:07.744Z,13.03
2023-04-07T23:31:36.160Z,13.13
2023-04-07T23:34:05.739Z,12.00
2023-04-07T23:36:33.479Z,13.23
2023-04-07T23:39:02.324Z,12.07
2023-04-07T23:41:30.046Z,11.60
2023-04-07T23:43:57.823Z,11.33
2023-04-07T23:46:25.841Z,11.77
2023-04-07T23:48:53.699Z,11.50
2023-04-07T23:51:22.860Z,11.60
2023-04-07T23:53:50.759Z,10.53
2023-04-07T23:56:18.543Z,10.80
2023-04-07T23:58:46.617Z,11.70
